createdAt,value
2023-03-20T00:03:15.659Z,49.30
2023-03-20T00:08:21.411Z,47.60
2023-03-20T00:13:28.521Z,48.30
2023-03-20T00:18:34.488Z,47.40
2023-03-20T00:23:40.461Z,49.50
2023-03-20T00:28:48.031Z,44.20
2023-03-20T00:33:56.196Z,43.70
2023-03-20T00:39:01.878Z,42.40
2023-03-20T00:44:19.902Z,41.80
2023-03-20T00:49:28.208Z,42.80
2023-03-20T00:54:34.014Z,43.60
2023-03-20T00:59:46.923Z,41.40
2023-03-20T01:04:52.738Z,39.90
2023-03-20T01:09:58.322Z,37.70
2023-03-20T01:15:04.438Z,36.70
2023-03-20T01:20:16.826Z,36.40
2023-03-20T01:25:23.113Z,36.30
2023-03-20T01:30:30.605Z,36.60
2023-03-20T01:35:36.460Z,34.90
2023-03-20T01:40:51.388Z,34.50
2023-03-20T01:46:04.814Z,35.50
2023-03-20T01:51:11.769Z,37.90
2023-03-20T01:56:20.127Z,37.50
2023-03-20T02:01:29.420Z,39.20
2023-03-20T02:06:36.205Z,36.70
2023-03-20T02:12:10.291Z,37.60
2023-03-20T02:17:16.668Z,34.70
2023-03-20T02:23:00.673Z,34.40
2023-03-20T02:28:39.253Z,34.90
2023-03-20T02:34:35.731Z,32.50
2023-03-20T02:39:52.247Z,32.70
2023-03-20T02:45:13.108Z,33.10
2023-03-20T02:50:27.352Z,30.40
2023-03-20T02:55:44.045Z,31.80
2023-03-20T03:00:58.228Z,32.90
2023-03-20T03:06:10.594Z,34.90
2023-03-20T03:11:17.561Z,33.30
2023-03-20T03:16:27.340Z,33.70
2023-03-20T03:21:35.904Z,34.70
2023-03-20T03:26:42.927Z,34.50
2023-03-20T03:31:49.409Z,34.60
2023-03-20T03:37:02.944Z,34.20
2023-03-20T03:42:15.829Z,32.00
2023-03-20T03:47:27.908Z,31.70
2023-03-20T03:52:34.768Z,34.70
2023-03-20T03:57:46.558Z,34.50
2023-03-20T04:02:56.385Z,33.80
2023-03-20T04:08:04.188Z,35.10
2023-03-20T04:13:10.600Z,34.90
2023-03-20T04:18:18.392Z,35.00
2023-03-20T04:23:25.310Z,35.30
2023-03-20T04:28:31.118Z,32.60
2023-03-20T04:33:57.035Z,33.70
2023-03-20T04:39:14.703Z,36.20
2023-03-20T04:44:20.562Z,35.80
2023-03-20T04:49:28.765Z,38.30
2023-03-20T04:54:34.984Z,39.40
2023-03-20T04:59:41.218Z,39.00
2023-03-20T05:04:47.157Z,36.30
2023-03-20T05:09:54.078Z,35.30
2023-03-20T05:14:59.629Z,36.60
2023-03-20T05:20:23.849Z,37.40
2023-03-20T05:25:42.489Z,40.40
2023-03-20T05:31:16.300Z,39.40
2023-03-20T05:36:37.017Z,44.10
2023-03-20T05:42:09.124Z,46.60
2023-03-20T05:47:26.763Z,42.10
2023-03-20T05:52:58.425Z,40.30
2023-03-20T05:58:27.404Z,39.60
2023-03-20T06:03:54.182Z,41.20
2023-03-20T06:09:18.960Z,41.50
2023-03-20T06:14:25.598Z,43.90
2023-03-20T06:19:36.868Z,43.10
2023-03-20T06:24:43.347Z,41.30
2023-03-20T06:29:49.503Z,42.20
2023-03-20T06:34:58.762Z,40.00
2023-03-20T06:40:05.727Z,37.80
2023-03-20T06:45:13.216Z,33.90
2023-03-20T06:50:37.223Z,34.10
2023-03-20T06:55:46.489Z,32.70
2023-03-20T07:00:52.208Z,30.60
2023-03-20T07:05:58.842Z,28.70
2023-03-20T07:11:04.411Z,27.60
2023-03-20T07:16:11.746Z,26.50
2023-03-20T07:21:23.024Z,28.50
2023-03-20T07:26:29.019Z,28.10
2023-03-20T07:31:35.617Z,29.90
2023-03-20T07:36:51.050Z,30.30
2023-03-20T07:41:58.991Z,30.80
2023-03-20T07:47:16.188Z,29.20
2023-03-20T07:52:21.817Z,28.40
2023-03-20T07:57:27.259Z,27.00
2023-03-20T08:02:35.030Z,26.80
2023-03-20T08:07:42.745Z,25.40
2023-03-20T08:12:48.594Z,25.70
2023-03-20T08:17:54.250Z,26.10
2023-03-20T08:22:59.747Z,24.80
2023-03-20T08:28:05.453Z,23.30
2023-03-20T08:33:11.099Z,23.00
2023-03-20T08:38:16.625Z,22.20
2023-03-20T08:43:23.534Z,22.20
2023-03-20T08:48:29.027Z,21.80
2023-03-20T08:53:34.550Z,21.60
2023-03-20T08:58:40.339Z,22.10
2023-03-20T09:03:45.756Z,19.70
2023-03-20T09:08:51.325Z,20.30
2023-03-20T09:13:57.049Z,19.80
2023-03-20T09:19:02.631Z,19.30
2023-03-20T09:24:08.846Z,19.80
2023-03-20T09:29:14.234Z,20.00
2023-03-20T09:34:19.846Z,19.50
2023-03-20T09:39:26.124Z,18.30
2023-03-20T09:44:49.424Z,17.30
2023-03-20T09:50:22.592Z,15.90
2023-03-20T09:55:35.274Z,16.70
2023-03-20T10:00:44.238Z,14.90
2023-03-20T10:05:56.725Z,14.40
2023-03-20T10:11:20.037Z,15.60
2023-03-20T10:16:40.065Z,14.30
2023-03-20T10:21:48.635Z,16.80
2023-03-20T10:26:58.308Z,16.90
2023-03-20T10:37:27.425Z,22.20
2023-03-20T10:42:38.101Z,17.70
2023-03-20T10:47:48.265Z,19.90
2023-03-20T10:52:56.438Z,21.50
2023-03-20T10:58:11.757Z,23.10
2023-03-20T11:03:23.689Z,25.30
2023-03-20T11:08:36.769Z,23.20
2023-03-20T11:13:44.006Z,23.70
2023-03-20T11:18:50.726Z,23.60
2023-03-20T11:23:57.346Z,24.00
2023-03-20T11:29:05.694Z,25.60
2023-03-20T11:34:26.808Z,24.90
2023-03-20T11:39:34.054Z,24.70
2023-03-20T11:44:41.544Z,27.60
2023-03-20T11:49:54.837Z,27.40
2023-03-20T11:55:03.412Z,30.00
2023-03-20T12:00:21.321Z,30.60
2023-03-20T12:05:33.111Z,25.90
2023-03-20T12:10:42.421Z,27.90
2023-03-20T12:15:51.092Z,25.10
2023-03-20T12:21:11.067Z,24.10
2023-03-20T12:26:22.764Z,24.40
2023-03-20T12:31:35.979Z,21.30
2023-03-20T12:36:45.476Z,19.60
2023-03-20T12:42:04.821Z,20.60
2023-03-20T12:47:23.971Z,20.30
2023-03-20T12:52:45.980Z,16.80
2023-03-20T12:58:05.314Z,18.30
2023-03-20T13:03:29.292Z,19.60
2023-03-20T13:08:54.641Z,19.20
2023-03-20T13:14:05.721Z,21.70
2023-03-20T13:19:24.415Z,23.20
2023-03-20T13:24:37.071Z,23.70
2023-03-20T13:29:50.392Z,74.40
2023-03-20T13:35:16.281Z,34.40
2023-03-20T13:40:25.993Z,28.60
2023-03-20T13:45:35.308Z,21.80
2023-03-20T13:50:49.444Z,21.60
2023-03-20T13:56:04.176Z,18.30
2023-03-20T14:01:17.268Z,21.70
2023-03-20T14:06:45.601Z,22.90
2023-03-20T14:11:52.610Z,34.40
2023-03-20T14:17:15.275Z,28.00
2023-03-20T14:22:24.045Z,19.30
2023-03-20T14:27:43.938Z,18.90
2023-03-20T14:33:00.429Z,19.20
2023-03-20T14:38:18.432Z,18.60
2023-03-20T14:43:42.667Z,20.50
2023-03-20T14:48:52.690Z,21.60
2023-03-20T14:54:21.458Z,23.10
2023-03-20T14:59:32.298Z,20.80
2023-03-20T15:04:41.648Z,16.60
2023-03-20T15:09:51.045Z,13.80
2023-03-20T15:14:58.982Z,12.20
2023-03-20T15:20:12.827Z,9.60
2023-03-20T15:25:20.679Z,8.20
2023-03-20T15:30:26.988Z,7.10
2023-03-20T15:35:32.665Z,6.10
2023-03-20T15:40:50.516Z,6.10
2023-03-20T15:46:16.122Z,7.30
2023-03-20T15:51:28.128Z,8.10
2023-03-20T15:56:35.235Z,7.00
2023-03-20T16:01:40.883Z,7.50
2023-03-20T16:06:54.698Z,8.80
2023-03-20T16:12:02.776Z,8.40
2023-03-20T16:17:08.699Z,8.00
2023-03-20T16:22:21.104Z,8.40
2023-03-20T16:27:30.051Z,8.40
2023-03-20T16:32:38.270Z,9.00
2023-03-20T16:37:49.934Z,7.70
2023-03-20T16:42:57.326Z,8.30
2023-03-20T16:48:26.438Z,8.70
2023-03-20T16:53:40.658Z,9.00
2023-03-20T16:58:47.379Z,15.00
2023-03-20T17:03:56.373Z,10.90
2023-03-20T17:09:08.905Z,9.00
2023-03-20T17:14:14.544Z,11.00
2023-03-20T17:19:21.242Z,10.80
2023-03-20T17:24:27.145Z,7.40
2023-03-20T17:29:32.937Z,7.30
2023-03-20T17:34:38.893Z,9.60
2023-03-20T17:39:44.311Z,11.30
2023-03-20T17:44:50.212Z,10.80
2023-03-20T17:49:56.016Z,11.20
2023-03-20T17:55:01.352Z,13.90
2023-03-20T18:00:10.009Z,14.50
2023-03-20T18:05:15.774Z,15.40
2023-03-20T18:10:29.026Z,11.70
2023-03-20T18:15:34.833Z,10.10
2023-03-20T18:20:41.606Z,10.30
2023-03-20T18:25:47.222Z,12.30
2023-03-20T18:31:02.022Z,12.80
2023-03-20T18:36:12.857Z,13.70
2023-03-20T18:41:19.056Z,12.40
2023-03-20T18:46:26.148Z,12.30
2023-03-20T18:51:31.894Z,13.00
2023-03-20T18:56:37.938Z,19.30
2023-03-20T19:01:43.716Z,17.20
2023-03-20T19:06:49.510Z,17.60
2023-03-20T19:11:54.969Z,22.70
2023-03-20T19:17:00.891Z,25.50
2023-03-20T19:22:10.627Z,23.50
2023-03-20T19:27:19.453Z,24.40
2023-03-20T19:32:25.085Z,26.70
2023-03-20T19:37:30.698Z,29.10
2023-03-20T19:42:59.012Z,27.00
2023-03-20T19:48:03.161Z,26.20
2023-03-20T19:53:10.803Z,29.60
2023-03-20T19:58:16.634Z,33.00
2023-03-20T20:03:24.727Z,31.40
2023-03-20T20:08:45.227Z,32.00
2023-03-20T20:14:10.399Z,30.10
2023-03-20T20:19:19.524Z,34.90
2023-03-20T20:24:25.444Z,37.00
2023-03-20T20:29:31.128Z,31.20
2023-03-20T20:40:04.882Z,29.60
2023-03-20T20:45:12.931Z,29.50
2023-03-20T20:50:21.133Z,27.50
2023-03-20T20:55:26.848Z,26.20
2023-03-20T21:00:47.979Z,28.70
2023-03-20T21:05:56.551Z,28.90
2023-03-20T21:11:01.986Z,26.50
2023-03-20T21:16:08.881Z,22.70
2023-03-20T21:21:16.087Z,24.80
2023-03-20T21:26:21.704Z,24.30
2023-03-20T21:31:31.042Z,21.10
2023-03-20T21:36:37.029Z,19.20
2023-03-20T21:41:42.823Z,19.80
2023-03-20T21:53:12.020Z,17.50
2023-03-20T22:03:11.606Z,16.70
2023-03-20T22:09:19.780Z,16.50
2023-03-20T22:20:02.702Z,17.10
2023-03-20T22:42:03.652Z,18.50
2023-03-20T22:46:45.444Z,19.90
2023-03-20T22:52:11.195Z,19.30
2023-03-20T22:57:17.773Z,19.40
2023-03-20T23:02:24.312Z,20.90
2023-03-20T23:07:29.876Z,20.30
2023-03-20T23:12:36.612Z,19.80
2023-03-20T23:17:42.041Z,21.50
2023-03-20T23:22:47.631Z,22.50
2023-03-20T23:27:53.015Z,21.90
2023-03-20T23:32:58.517Z,21.30
2023-03-20T23:38:03.968Z,23.90
2023-03-20T23:43:09.466Z,23.20
2023-03-20T23:48:15.666Z,22.00
2023-03-20T23:53:21.650Z,21.80
2023-03-20T23:58:28.084Z,23.30
